createdAt,value
2017-09-05T00:01:34.852Z,73.88
2017-09-05T00:04:03.905Z,73.80
2017-09-05T00:06:32.955Z,73.85
2017-09-05T00:12:11.515Z,74.15
2017-09-05T00:14:52.442Z,73.97
2017-09-05T00:17:31.416Z,74.00
2017-09-05T00:20:00.476Z,73.88
2017-09-05T00:22:29.840Z,73.79
2017-09-05T00:24:58.912Z,73.80
2017-09-05T00:27:27.944Z,73.87
2017-09-05T00:29:57.328Z,74.12
2017-09-05T00:32:26.397Z,73.92
2017-09-05T00:34:55.467Z,73.89
2017-09-05T00:37:24.512Z,73.92
2017-09-05T00:39:53.567Z,74.34
2017-09-05T00:42:22.636Z,74.45
2017-09-05T00:44:51.740Z,74.85
2017-09-05T00:47:20.767Z,75.36
2017-09-05T00:49:49.828Z,75.18
2017-09-05T00:52:18.913Z,75.94
2017-09-05T00:54:47.997Z,75.79
2017-09-05T00:57:17.035Z,76.34
2017-09-05T00:59:46.085Z,76.49
2017-09-05T01:02:15.212Z,76.45
2017-09-05T01:04:45.071Z,76.49
2017-09-05T01:07:14.148Z,76.65
2017-09-05T01:09:43.207Z,76.47
2017-09-05T01:12:13.061Z,76.23
2017-09-05T01:14:42.117Z,76.24
2017-09-05T01:17:11.576Z,76.21
2017-09-05T01:19:40.629Z,76.33
2017-09-05T01:22:09.708Z,76.49
2017-09-05T01:24:38.798Z,75.92
2017-09-05T01:27:08.120Z,76.35
2017-09-05T01:29:37.972Z,76.18
2017-09-05T01:32:07.016Z,76.04
2017-09-05T01:34:36.044Z,76.09
2017-09-05T01:37:05.121Z,76.15
2017-09-05T01:39:34.167Z,75.95
2017-09-05T01:42:03.254Z,76.10
2017-09-05T01:44:32.323Z,76.27
2017-09-05T01:47:01.386Z,76.19
2017-09-05T01:49:30.495Z,76.57
2017-09-05T01:51:59.562Z,76.53
2017-09-05T01:54:29.400Z,76.74
2017-09-05T01:56:59.230Z,76.55
2017-09-05T01:59:28.300Z,76.67
2017-09-05T02:01:57.392Z,76.63
2017-09-05T02:04:26.431Z,76.59
2017-09-05T02:06:55.495Z,76.57
2017-09-05T02:09:24.561Z,76.35
2017-09-05T02:11:53.628Z,76.54
2017-09-05T02:14:22.691Z,76.46
2017-09-05T02:16:51.768Z,76.86
2017-09-05T02:19:20.879Z,76.71
2017-09-05T02:21:50.684Z,77.02
2017-09-05T02:24:19.750Z,76.72
2017-09-05T02:26:48.796Z,76.80
2017-09-05T02:29:17.857Z,76.61
2017-09-05T02:31:46.917Z,76.73
2017-09-05T02:34:15.970Z,76.61
2017-09-05T02:36:45.033Z,76.89
2017-09-05T02:39:14.092Z,76.85
2017-09-05T02:41:43.441Z,77.23
2017-09-05T02:44:13.276Z,77.39
2017-09-05T02:46:42.324Z,77.44
2017-09-05T02:49:11.399Z,77.47
2017-09-05T02:51:40.476Z,77.54
2017-09-05T02:54:09.551Z,77.64
2017-09-05T02:56:38.614Z,77.75
2017-09-05T02:59:08.020Z,77.86
2017-09-05T03:01:37.048Z,78.00
2017-09-05T03:04:06.213Z,78.11
2017-09-05T03:06:35.395Z,78.07
2017-09-05T03:09:04.686Z,77.94
2017-09-05T03:11:33.694Z,77.97
2017-09-05T03:14:02.973Z,77.87
2017-09-05T03:16:32.031Z,78.11
2017-09-05T03:19:01.108Z,78.16
2017-09-05T03:21:30.152Z,78.18
2017-09-05T03:23:59.205Z,78.23
2017-09-05T03:26:28.282Z,78.24
2017-09-05T03:28:58.913Z,78.24
2017-09-05T03:31:28.013Z,78.22
2017-09-05T03:33:57.845Z,78.42
2017-09-05T03:36:26.964Z,78.11
2017-09-05T03:38:56.035Z,77.98
2017-09-05T03:41:25.444Z,77.96
2017-09-05T03:43:55.241Z,77.98
2017-09-05T03:46:25.131Z,77.88
2017-09-05T03:48:54.187Z,78.19
2017-09-05T03:51:23.251Z,78.12
2017-09-05T03:53:52.356Z,78.42
2017-09-05T03:56:21.658Z,78.63
2017-09-05T03:58:50.739Z,78.41
2017-09-05T04:01:19.783Z,78.51
2017-09-05T04:03:48.849Z,78.71
2017-09-05T04:06:17.932Z,78.44
2017-09-05T04:08:46.999Z,78.33
2017-09-05T04:11:16.083Z,78.31
2017-09-05T04:13:45.124Z,78.43
2017-09-05T04:16:14.198Z,78.29
2017-09-05T04:18:44.041Z,78.59
2017-09-05T04:21:13.118Z,78.31
2017-09-05T04:23:42.167Z,78.45
2017-09-05T04:26:11.231Z,78.65
2017-09-05T04:28:40.304Z,78.76
2017-09-05T04:31:09.381Z,78.88
2017-09-05T04:33:38.457Z,78.71
2017-09-05T04:36:07.967Z,78.87
2017-09-05T04:38:37.054Z,79.17
2017-09-05T04:41:06.150Z,79.12
2017-09-05T04:43:35.204Z,79.21
2017-09-05T04:46:04.267Z,79.66
2017-09-05T04:48:34.092Z,79.78
2017-09-05T04:51:03.335Z,80.45
2017-09-05T04:53:32.415Z,80.76
2017-09-05T04:56:01.481Z,80.82
2017-09-05T04:58:30.529Z,81.25
2017-09-05T05:00:59.588Z,81.22
2017-09-05T05:03:28.679Z,81.42
2017-09-05T05:05:57.744Z,81.69
2017-09-05T05:08:26.809Z,81.59
2017-09-05T05:10:55.854Z,81.80
2017-09-05T05:13:24.946Z,81.79
2017-09-05T05:15:54.325Z,81.76
2017-09-05T05:18:23.395Z,81.76
2017-09-05T05:20:52.466Z,81.81
2017-09-05T05:23:21.521Z,81.85
2017-09-05T05:25:50.591Z,81.80
2017-09-05T05:28:19.647Z,81.95
2017-09-05T05:30:48.731Z,82.17
2017-09-05T05:33:17.806Z,81.84
2017-09-05T05:35:46.879Z,81.86
2017-09-05T05:38:15.961Z,81.82
2017-09-05T05:40:45.048Z,81.69
2017-09-05T05:43:14.115Z,81.49
2017-09-05T05:45:43.168Z,81.58
2017-09-05T05:48:12.377Z,81.33
2017-09-05T05:50:41.440Z,81.25
2017-09-05T05:53:10.480Z,80.80
2017-09-05T05:55:39.551Z,81.24
2017-09-05T05:58:08.647Z,81.06
2017-09-05T06:00:37.704Z,81.00
2017-09-05T06:03:07.024Z,80.81
2017-09-05T06:05:36.056Z,80.74
2017-09-05T06:08:06.027Z,80.70
2017-09-05T06:10:35.116Z,80.31
2017-09-05T06:13:04.215Z,80.48
2017-09-05T06:15:33.244Z,80.13
2017-09-05T06:18:02.415Z,80.14
2017-09-05T06:20:31.479Z,80.05
2017-09-05T06:23:00.749Z,80.10
2017-09-05T06:25:29.813Z,79.96
2017-09-05T06:27:58.857Z,79.54
2017-09-05T06:30:27.910Z,79.40
2017-09-05T06:32:56.990Z,79.56
2017-09-05T06:35:26.033Z,79.49
2017-09-05T06:37:55.132Z,79.75
2017-09-05T06:40:24.936Z,79.78
2017-09-05T06:42:54.004Z,80.17
2017-09-05T06:45:23.085Z,79.74
2017-09-05T06:47:52.401Z,79.73
2017-09-05T06:50:21.475Z,79.10
2017-09-05T06:52:50.542Z,78.97
2017-09-05T06:55:19.688Z,78.57
2017-09-05T06:57:48.737Z,78.87
2017-09-05T07:00:17.823Z,78.40
2017-09-05T07:02:46.893Z,78.35
2017-09-05T07:05:16.719Z,78.17
2017-09-05T07:07:45.767Z,77.90
2017-09-05T07:10:14.859Z,77.82
2017-09-05T07:12:43.912Z,77.50
2017-09-05T07:15:12.999Z,77.76
2017-09-05T07:17:42.046Z,77.46
2017-09-05T07:20:11.324Z,77.48
2017-09-05T07:22:40.340Z,77.26
2017-09-05T07:25:10.214Z,77.03
2017-09-05T07:27:39.280Z,77.09
2017-09-05T07:30:08.509Z,76.91
2017-09-05T07:32:37.576Z,77.02
2017-09-05T07:35:07.413Z,76.88
2017-09-05T07:37:36.585Z,76.87
2017-09-05T07:40:05.674Z,76.65
2017-09-05T07:42:35.507Z,76.48
2017-09-05T07:45:04.880Z,76.29
2017-09-05T07:47:34.045Z,76.58
2017-09-05T07:50:03.335Z,76.53
2017-09-05T07:52:32.409Z,76.40
2017-09-05T07:55:01.452Z,76.22
2017-09-05T07:57:30.535Z,76.19
2017-09-05T07:59:59.570Z,76.04
2017-09-05T08:02:29.407Z,75.76
2017-09-05T08:04:58.473Z,75.83
2017-09-05T08:07:28.285Z,75.66
2017-09-05T08:09:57.357Z,75.31
2017-09-05T08:12:26.404Z,75.28
2017-09-05T08:14:55.463Z,75.46
2017-09-05T08:17:24.795Z,75.03
2017-09-05T08:19:53.875Z,74.90
2017-09-05T08:22:22.948Z,74.57
2017-09-05T08:24:51.985Z,74.74
2017-09-05T08:27:21.351Z,74.32
2017-09-05T08:29:50.379Z,74.17
2017-09-05T08:32:19.475Z,74.02
2017-09-05T08:34:48.509Z,73.91
2017-09-05T08:37:17.578Z,74.17
2017-09-05T08:39:46.931Z,74.33
2017-09-05T08:42:15.998Z,73.20
2017-09-05T08:44:45.044Z,73.13
2017-09-05T08:47:14.439Z,73.37
2017-09-05T08:49:44.255Z,73.05
2017-09-05T08:52:14.080Z,73.15
2017-09-05T08:54:43.120Z,73.68
2017-09-05T08:57:12.349Z,73.67
2017-09-05T08:59:41.964Z,74.00
2017-09-05T09:02:11.047Z,73.87
2017-09-05T09:04:40.092Z,72.70
2017-09-05T09:07:09.167Z,72.19
2017-09-05T09:09:38.202Z,72.20
2017-09-05T09:12:07.273Z,72.49
2017-09-05T09:14:36.345Z,71.27
2017-09-05T09:17:06.176Z,70.36
2017-09-05T09:19:35.345Z,69.62
2017-09-05T09:22:04.423Z,69.56
2017-09-05T09:24:33.463Z,68.86
2017-09-05T09:27:02.637Z,67.94
2017-09-05T09:29:31.691Z,68.19
2017-09-05T09:32:00.744Z,67.47
2017-09-05T09:34:29.833Z,66.86
2017-09-05T09:36:58.884Z,66.54
2017-09-05T09:39:27.992Z,65.62
2017-09-05T09:41:57.012Z,64.76
2017-09-05T09:44:26.077Z,65.27
2017-09-05T09:46:55.171Z,65.33
2017-09-05T09:49:24.436Z,65.03
2017-09-05T09:51:53.538Z,65.19
2017-09-05T09:54:22.675Z,64.06
2017-09-05T09:56:51.683Z,63.62
2017-09-05T09:59:20.772Z,63.54
2017-09-05T10:01:49.820Z,62.53
2017-09-05T10:04:18.923Z,62.75
2017-09-05T10:06:48.114Z,62.19
2017-09-05T10:09:17.179Z,62.46
2017-09-05T10:11:46.264Z,61.81
2017-09-05T10:14:15.379Z,60.35
2017-09-05T10:16:44.441Z,60.56
2017-09-05T10:19:13.495Z,59.84
2017-09-05T10:21:42.540Z,60.00
2017-09-05T10:24:11.716Z,60.58
2017-09-05T10:26:40.749Z,60.50
2017-09-05T10:29:09.844Z,59.65
2017-09-05T10:31:38.876Z,59.33
2017-09-05T10:34:07.928Z,59.82
2017-09-05T10:36:37.296Z,59.31
2017-09-05T10:39:06.370Z,59.91
2017-09-05T10:41:35.415Z,58.09
2017-09-05T10:44:04.480Z,58.53
2017-09-05T10:46:33.622Z,57.54
2017-09-05T10:49:02.657Z,58.68
2017-09-05T10:51:31.824Z,59.76
2017-09-05T10:54:00.885Z,58.33
2017-09-05T10:56:29.944Z,57.97
2017-09-05T10:58:59.021Z,58.64
2017-09-05T11:01:28.073Z,58.76
2017-09-05T11:03:57.152Z,58.15
2017-09-05T11:06:26.209Z,59.58
2017-09-05T11:08:55.279Z,58.01
2017-09-05T11:11:24.436Z,57.41
2017-09-05T11:13:53.592Z,57.94
2017-09-05T11:16:22.690Z,57.93
2017-09-05T11:18:51.821Z,57.50
2017-09-05T11:21:20.853Z,56.99
2017-09-05T11:23:49.957Z,57.46
2017-09-05T11:26:19.018Z,55.06
2017-09-05T11:28:48.830Z,56.16
2017-09-05T11:31:17.892Z,55.92
2017-09-05T11:33:46.961Z,54.77
2017-09-05T11:36:16.039Z,55.38
2017-09-05T11:38:45.156Z,55.03
2017-09-05T11:41:14.237Z,54.04
2017-09-05T11:43:43.281Z,54.49
2017-09-05T11:46:12.370Z,53.43
2017-09-05T11:48:41.405Z,54.39
2017-09-05T11:51:10.477Z,55.15
2017-09-05T11:53:39.588Z,54.80
2017-09-05T11:56:08.663Z,54.40
2017-09-05T11:58:37.748Z,55.37
2017-09-05T12:01:06.825Z,55.19
2017-09-05T12:03:35.905Z,55.71
2017-09-05T12:06:05.064Z,54.73
2017-09-05T12:08:34.112Z,53.15
2017-09-05T12:13:31.344Z,53.54
2017-09-05T12:16:00.454Z,52.62
2017-09-05T12:18:29.709Z,52.40
2017-09-05T12:20:58.885Z,52.45
2017-09-05T12:23:27.978Z,52.08
2017-09-05T12:25:57.020Z,52.66
2017-09-05T12:28:26.092Z,51.67
2017-09-05T12:30:55.155Z,51.49
2017-09-05T12:33:24.207Z,51.42
2017-09-05T12:35:53.296Z,51.52
2017-09-05T12:38:22.351Z,51.26
2017-09-05T12:40:51.421Z,51.18
2017-09-05T12:43:20.504Z,50.85
2017-09-05T12:45:50.024Z,49.73
2017-09-05T12:48:19.088Z,51.52
2017-09-05T12:50:48.173Z,49.81
2017-09-05T12:53:17.393Z,50.83
2017-09-05T12:55:46.471Z,51.12
2017-09-05T12:58:15.511Z,50.00
2017-09-05T13:00:44.623Z,49.70
2017-09-05T13:03:13.685Z,50.58
2017-09-05T13:05:43.378Z,50.71
2017-09-05T13:08:12.587Z,50.23
2017-09-05T13:10:41.658Z,50.26
2017-09-05T13:13:11.184Z,50.54
2017-09-05T13:15:40.246Z,50.85
2017-09-05T13:18:10.148Z,52.40
2017-09-05T13:20:39.226Z,52.46
2017-09-05T13:23:08.336Z,52.66
2017-09-05T13:25:37.380Z,52.75
2017-09-05T13:28:06.831Z,52.89
2017-09-05T13:30:36.248Z,53.41
2017-09-05T13:33:05.316Z,54.30
2017-09-05T13:35:34.380Z,54.80
2017-09-05T13:38:03.520Z,54.88
2017-09-05T13:40:32.809Z,54.80
2017-09-05T13:43:01.880Z,55.15
2017-09-05T13:45:30.980Z,55.32
2017-09-05T13:48:00.047Z,55.68
2017-09-05T13:50:29.125Z,56.07
2017-09-05T13:52:58.221Z,55.86
2017-09-05T13:55:27.271Z,56.25
2017-09-05T13:57:56.331Z,56.04
2017-09-05T14:00:25.368Z,55.92
2017-09-05T14:02:54.473Z,56.02
2017-09-05T14:05:26.316Z,56.52
2017-09-05T14:07:57.435Z,56.44
2017-09-05T14:10:26.499Z,56.78
2017-09-05T14:12:55.544Z,56.57
2017-09-05T14:15:24.797Z,56.48
2017-09-05T14:17:53.857Z,56.82
2017-09-05T14:20:22.911Z,56.57
2017-09-05T14:22:52.018Z,56.50
2017-09-05T14:25:21.816Z,56.34
2017-09-05T14:27:50.891Z,56.84
2017-09-05T14:30:19.951Z,56.12
2017-09-05T14:32:49.013Z,56.53
2017-09-05T14:35:18.145Z,56.71
2017-09-05T14:37:47.229Z,57.01
2017-09-05T14:40:16.330Z,56.61
2017-09-05T14:42:45.760Z,56.47
2017-09-05T14:45:14.821Z,56.76
2017-09-05T14:47:43.866Z,57.38
2017-09-05T14:50:12.977Z,57.68
2017-09-05T14:52:42.040Z,57.65
2017-09-05T14:55:11.100Z,57.34
2017-09-05T14:57:40.220Z,57.55
2017-09-05T15:00:09.423Z,57.58
2017-09-05T15:02:38.486Z,57.53
2017-09-05T15:05:07.590Z,58.23
2017-09-05T15:07:36.627Z,57.06
2017-09-05T15:10:05.720Z,56.08
2017-09-05T15:12:34.784Z,56.58
2017-09-05T15:15:03.895Z,57.19
2017-09-05T15:17:32.993Z,57.33
2017-09-05T15:20:02.054Z,57.50
2017-09-05T15:22:31.144Z,57.86
2017-09-05T15:25:00.225Z,57.97
2017-09-05T15:27:29.301Z,58.08
2017-09-05T15:29:58.387Z,58.13
2017-09-05T15:32:28.256Z,58.04
2017-09-05T15:34:57.325Z,58.00
2017-09-05T15:37:26.394Z,57.82
2017-09-05T15:39:55.469Z,57.82
2017-09-05T15:42:24.524Z,57.94
2017-09-05T15:44:53.601Z,58.12
2017-09-05T15:47:22.668Z,58.06
2017-09-05T15:49:52.726Z,58.12
2017-09-05T15:52:21.868Z,58.16
2017-09-05T15:54:50.924Z,58.34
2017-09-05T15:57:20.027Z,58.80
2017-09-05T15:59:49.085Z,58.66
2017-09-05T16:02:18.166Z,58.84
2017-09-05T16:04:47.228Z,59.46
2017-09-05T16:07:16.328Z,59.38
2017-09-05T16:09:45.399Z,59.71
2017-09-05T16:12:14.660Z,60.13
2017-09-05T16:14:43.726Z,60.22
2017-09-05T16:17:12.818Z,60.48
2017-09-05T16:19:43.387Z,60.26
2017-09-05T16:22:13.489Z,60.82
2017-09-05T16:24:42.556Z,60.77
2017-09-05T16:27:11.623Z,61.17
2017-09-05T16:29:40.675Z,61.02
2017-09-05T16:32:09.771Z,60.69
2017-09-05T16:34:38.821Z,60.84
2017-09-05T16:37:07.915Z,60.75
2017-09-05T16:39:36.940Z,60.64
2017-09-05T16:42:06.282Z,60.50
2017-09-05T16:44:35.846Z,60.21
2017-09-05T16:47:05.884Z,60.63
2017-09-05T16:49:35.087Z,60.79
2017-09-05T16:52:04.265Z,60.74
2017-09-05T16:54:33.338Z,60.63
2017-09-05T16:57:02.401Z,60.70
2017-09-05T16:59:31.576Z,61.09
2017-09-05T17:02:02.120Z,61.28
2017-09-05T17:04:31.229Z,61.48
2017-09-05T17:07:00.340Z,61.44
2017-09-05T17:09:29.532Z,61.54
2017-09-05T17:11:58.594Z,61.53
2017-09-05T17:14:27.648Z,61.85
2017-09-05T17:16:56.769Z,62.03
2017-09-05T17:19:27.537Z,62.12
2017-09-05T17:21:56.630Z,61.89
2017-09-05T17:24:25.718Z,62.16
2017-09-05T17:26:55.054Z,62.25
2017-09-05T17:29:24.136Z,62.35
2017-09-05T17:31:53.207Z,62.50
2017-09-05T17:34:22.261Z,62.42
2017-09-05T17:36:51.354Z,62.42
2017-09-05T17:39:20.391Z,62.47
2017-09-05T17:41:49.459Z,62.38
2017-09-05T17:44:18.519Z,62.38
2017-09-05T17:46:47.950Z,62.44
2017-09-05T17:49:16.960Z,62.58
2017-09-05T17:51:46.024Z,62.69
2017-09-05T17:54:15.112Z,62.86
2017-09-05T17:56:44.329Z,62.85
2017-09-05T17:59:13.409Z,63.00
2017-09-05T18:01:42.477Z,63.33
2017-09-05T18:04:12.442Z,63.47
2017-09-05T18:06:41.498Z,63.50
2017-09-05T18:09:10.619Z,63.63
2017-09-05T18:11:39.649Z,63.94
2017-09-05T18:14:08.755Z,64.00
2017-09-05T18:16:37.858Z,64.12
2017-09-05T18:19:07.045Z,64.16
2017-09-05T18:21:36.148Z,64.40
2017-09-05T18:24:05.291Z,64.60
2017-09-05T18:26:35.484Z,64.80
2017-09-05T18:29:04.683Z,65.26
2017-09-05T18:31:33.774Z,65.36
2017-09-05T18:34:02.866Z,65.59
2017-09-05T18:36:31.911Z,65.70
2017-09-05T18:39:01.761Z,65.71
2017-09-05T18:41:30.980Z,65.63
2017-09-05T18:44:00.120Z,65.56
2017-09-05T18:46:29.989Z,65.63
2017-09-05T18:48:59.072Z,65.59
2017-09-05T18:51:28.256Z,65.58
2017-09-05T18:53:57.621Z,65.66
2017-09-05T18:56:28.261Z,65.69
2017-09-05T18:58:57.804Z,65.69
2017-09-05T19:01:26.937Z,65.67
2017-09-05T19:03:56.054Z,65.94
2017-09-05T19:06:25.110Z,65.94
2017-09-05T19:08:54.552Z,65.90
2017-09-05T19:11:23.736Z,65.99
2017-09-05T19:13:52.869Z,66.08
2017-09-05T19:16:21.947Z,68.93
2017-09-05T19:18:51.007Z,71.64
2017-09-05T19:21:20.098Z,72.15
2017-09-05T19:23:49.197Z,74.02
2017-09-05T19:26:18.244Z,74.84
2017-09-05T19:28:47.374Z,75.33
2017-09-05T19:31:16.434Z,76.63
2017-09-05T19:33:45.491Z,77.03
2017-09-05T19:36:14.591Z,77.85
2017-09-05T19:38:43.684Z,78.45
2017-09-05T19:41:12.796Z,78.87
2017-09-05T19:43:41.887Z,78.73
2017-09-05T19:46:10.947Z,78.98
2017-09-05T19:48:40.069Z,78.55
2017-09-05T19:51:09.209Z,78.64
2017-09-05T19:53:38.294Z,78.96
2017-09-05T19:56:08.151Z,79.59
2017-09-05T19:58:38.187Z,79.91
2017-09-05T20:01:07.289Z,80.27
2017-09-05T20:03:36.361Z,80.58
2017-09-05T20:06:05.987Z,80.69
2017-09-05T20:08:35.061Z,80.86
2017-09-05T20:11:04.116Z,80.71
2017-09-05T20:13:33.160Z,80.77
2017-09-05T20:16:02.276Z,81.01
2017-09-05T20:18:31.330Z,81.16
2017-09-05T20:21:00.385Z,81.07
2017-09-05T20:23:30.388Z,81.38
2017-09-05T20:25:59.580Z,81.60
2017-09-05T20:28:28.628Z,81.37
2017-09-05T20:30:57.687Z,81.57
2017-09-05T20:33:26.813Z,81.42
2017-09-05T20:35:55.864Z,80.89
2017-09-05T20:38:24.930Z,81.30
2017-09-05T20:40:53.987Z,80.39
2017-09-05T20:43:23.058Z,80.02
2017-09-05T20:45:53.070Z,80.22
2017-09-05T20:48:22.100Z,79.13
2017-09-05T20:50:51.160Z,78.57
2017-09-05T20:53:20.973Z,79.37
2017-09-05T20:55:50.063Z,80.08
2017-09-05T20:58:19.128Z,81.04
2017-09-05T21:00:48.190Z,81.32
2017-09-05T21:03:17.253Z,82.03
2017-09-05T21:05:47.061Z,82.10
2017-09-05T21:08:16.269Z,82.36
2017-09-05T21:10:46.096Z,82.88
2017-09-05T21:13:16.658Z,82.63
2017-09-05T21:15:45.757Z,82.55
2017-09-05T21:18:15.304Z,82.30
2017-09-05T21:20:45.124Z,82.23
2017-09-05T21:23:14.209Z,82.47
2017-09-05T21:25:43.340Z,82.53
2017-09-05T21:28:12.399Z,82.90
2017-09-05T21:30:41.459Z,82.59
2017-09-05T21:33:10.548Z,82.33
2017-09-05T21:35:39.606Z,82.30
2017-09-05T21:38:09.458Z,82.24
2017-09-05T21:40:38.500Z,82.18
2017-09-05T21:43:07.616Z,82.03
2017-09-05T21:45:37.416Z,81.88
2017-09-05T21:48:06.641Z,81.74
2017-09-05T21:50:35.702Z,81.69
2017-09-05T21:53:05.536Z,82.05
2017-09-05T21:55:34.871Z,81.61
2017-09-05T21:58:03.922Z,81.68
2017-09-05T22:00:33.001Z,81.84
2017-09-05T22:03:02.415Z,81.59
2017-09-05T22:05:31.445Z,81.69
2017-09-05T22:08:00.489Z,81.42
2017-09-05T22:10:29.529Z,81.24
2017-09-05T22:12:58.649Z,81.19
2017-09-05T22:15:33.178Z,81.17
2017-09-05T22:18:02.269Z,81.19
2017-09-05T22:20:36.964Z,81.16
2017-09-05T22:23:06.043Z,80.86
2017-09-05T22:25:40.676Z,80.34
2017-09-05T22:28:15.373Z,80.35
2017-09-05T22:30:44.421Z,79.87
2017-09-05T22:33:13.486Z,80.13
2017-09-05T22:35:43.309Z,79.50
2017-09-05T22:38:12.384Z,79.67
2017-09-05T22:40:41.411Z,79.65
2017-09-05T22:43:10.503Z,79.68
2017-09-05T22:45:39.579Z,79.53
2017-09-05T22:48:09.400Z,79.70
2017-09-05T22:50:38.436Z,79.83
2017-09-05T22:53:07.729Z,80.12
2017-09-05T22:55:36.763Z,79.73
2017-09-05T22:58:05.825Z,79.91
2017-09-05T23:00:34.888Z,79.71
2017-09-05T23:03:03.960Z,79.69
2017-09-05T23:05:33.789Z,78.79
2017-09-05T23:08:03.956Z,78.66
2017-09-05T23:10:33.263Z,78.46
2017-09-05T23:13:02.355Z,78.46
2017-09-05T23:15:31.424Z,78.51
2017-09-05T23:18:00.526Z,78.40
2017-09-05T23:20:29.580Z,78.64
2017-09-05T23:22:58.635Z,78.51
2017-09-05T23:25:27.714Z,78.33
2017-09-05T23:27:57.520Z,78.40
2017-09-05T23:30:26.580Z,77.96
2017-09-05T23:32:56.406Z,78.57
2017-09-05T23:35:25.482Z,78.24
2017-09-05T23:37:55.412Z,78.36
2017-09-05T23:40:24.456Z,78.39
2017-09-05T23:42:53.530Z,78.25
2017-09-05T23:45:22.585Z,78.61
2017-09-05T23:47:52.425Z,78.43
2017-09-05T23:50:21.488Z,78.21
2017-09-05T23:52:50.524Z,78.55
2017-09-05T23:55:19.624Z,78.78
2017-09-05T23:57:48.687Z,78.42
